Pella, IA

8:01 PM CDT on August 19, 2017 (GMT -0500)
Pella Municipal

Weather History for KPEA - April, 2014

Change the Weather History Date:

Saturday, April 12, 2014

  Actual Average (KOXV) Record (KOXV)
Temperature  
Mean Temperature 70 °F -  
Max Temperature 85 °F 60 °F 84 °F (2014)
Min Temperature 56 °F 37 °F 19 °F (1957)
Cooling Degree Days 6    
Growing Degree Days 20 (Base 50)    
Moisture  
Dew Point 49 °F    
Average Humidity 47    
Maximum Humidity 93    
Minimum Humidity 34    
Precipitation  
Precipitation 0.02 in - - ()
Sea Level Pressure  
Sea Level Pressure 29.71 in    
Wind  
Wind Speed 11 mph (South)    
Max Wind Speed 22 mph    
Max Gust Speed 48 mph    
Visibility 10 miles    
Events Rain    
Averages and records for this station are not official NWS values.
T = Trace of Precipitation, MM = Missing Value Source: NWS Daily Summary

Daily Weather History Graph

Daily Weather History Graph

Search for Another Location

Airport or City:

Trip Planner

Search our weather history database for the weather conditions in past years. The results will help you decide how hot, cold, wet, or windy it might be!

Date:

Astronomy

Apr. 12, 2014 Rise Set
Actual Time 6:36 AM CDT 7:48 PM CDT
Civil Twilight 6:08 AM CDT 8:17 PM CDT
Nautical Twilight 5:34 AM CDT 8:51 PM CDT
Astronomical Twilight 4:58 AM CDT 9:27 PM CDT
Moon 5:26 PM CDT (4/12) 5:05 AM CDT (4/12)
Length of Visible Light 14h 09m
Length of Day
13h 12m
Waxing Gibbous, 93% of the Moon is Illuminated
Apr 12
Waxing Gibbous
Apr 15
Full
Apr 22
Last Quarter
Apr 29
New
May 6
First Quarter

Hourly Weather History & Observations

Time (CDT) Temp. Heat Index Dew Point Humidity Pressure Visibility Wind Dir Wind Speed Gust Speed Precip Events Conditions
12:15 AM 60.4 °F - 33.3 °F 36% 29.93 in 10.0 mi South 8.1 mph - N/A   Clear
12:35 AM 60.3 °F - 33.3 °F 36% 29.93 in 10.0 mi SSE 8.1 mph - N/A   Clear
12:55 AM 59.4 °F - 33.3 °F 37% 29.92 in 10.0 mi SSE 6.9 mph - N/A   Clear
1:15 AM 59.5 °F - 33.3 °F 37% 29.92 in 10.0 mi South 6.9 mph - N/A   Clear
1:35 AM 59.7 °F - 33.1 °F 37% 29.91 in 10.0 mi SSE 8.1 mph - N/A   Clear
1:55 AM 60.1 °F - 33.1 °F 36% 29.91 in 10.0 mi SSE 10.4 mph - N/A   Clear
2:15 AM 60.1 °F - 32.9 °F 36% 29.89 in 10.0 mi SSE 10.4 mph - N/A   Clear
2:35 AM 60.8 °F - 32.4 °F 34% 29.89 in 10.0 mi SSE 10.4 mph - N/A   Clear
2:55 AM 59.9 °F - 32.0 °F 35% 29.87 in 10.0 mi SSE 11.5 mph - N/A   Clear
3:15 AM 59.2 °F - 32.0 °F 36% 29.86 in 10.0 mi SSE 11.5 mph - N/A   Clear
3:35 AM 59.2 °F - 32.0 °F 36% 29.85 in 10.0 mi SSE 12.7 mph - N/A   Clear
3:55 AM 59.2 °F - 32.0 °F 36% 29.84 in 10.0 mi SSE 10.4 mph 16.1 mph N/A   Clear
4:15 AM 58.5 °F - 32.0 °F 37% 29.83 in 10.0 mi SSE 9.2 mph - N/A   Clear
4:35 AM 57.7 °F - 32.4 °F 38% 29.82 in 10.0 mi SE 9.2 mph - N/A   Clear
4:55 AM 58.5 °F - 33.6 °F 39% 29.81 in 10.0 mi SSE 9.2 mph - N/A   Mostly Cloudy
5:15 AM 58.3 °F - 34.7 °F 41% 29.82 in 10.0 mi SSE 10.4 mph - N/A   Mostly Cloudy
5:35 AM 58.1 °F - 36.3 °F 44% 29.82 in 10.0 mi SSE 10.4 mph - N/A   Scattered Clouds
5:55 AM 58.1 °F - 37.6 °F 46% 29.81 in 10.0 mi SSE 9.2 mph - N/A   Mostly Cloudy
6:15 AM 58.1 °F - 38.8 °F 49% 29.83 in 10.0 mi SSE 6.9 mph - N/A   Overcast
6:35 AM 57.4 °F - 39.4 °F 51% 29.82 in 10.0 mi SE 5.8 mph - N/A   Mostly Cloudy
6:55 AM 56.8 °F - 40.3 °F 54% 29.80 in 10.0 mi SE 10.4 mph - N/A   Scattered Clouds
7:15 AM 57.2 °F - 41.5 °F 56% 29.78 in 10.0 mi SSE 11.5 mph 17.3 mph N/A   Scattered Clouds
7:35 AM 57.6 °F - 43.2 °F 59% 29.78 in 10.0 mi SSE 9.2 mph - N/A   Clear
7:55 AM 58.6 °F - 43.5 °F 57% 29.79 in 10.0 mi South 15.0 mph 20.7 mph N/A   Clear
8:15 AM 58.1 °F - 44.2 °F 60% 29.79 in 10.0 mi South 11.5 mph - N/A   Clear
8:35 AM 61.0 °F - 46.4 °F 59% 29.79 in 10.0 mi South 12.7 mph - N/A   Clear
8:55 AM 62.1 °F - 47.7 °F 59% 29.79 in 10.0 mi South 8.1 mph - N/A   Clear
9:15 AM 64.6 °F - 51.3 °F 62% 29.78 in 10.0 mi South 11.5 mph 17.3 mph N/A   Scattered Clouds
9:35 AM 68.2 °F - 54.0 °F 60% 29.78 in 10.0 mi SSW 11.5 mph 17.3 mph N/A   Scattered Clouds
9:55 AM 67.6 °F - 53.8 °F 61% 29.78 in 10.0 mi SSW 10.4 mph 19.6 mph N/A   Mostly Cloudy
10:15 AM 70.0 °F - 54.5 °F 58% 29.78 in 10.0 mi South 8.1 mph - N/A   Mostly Cloudy
10:35 AM 70.7 °F - 54.7 °F 57% 29.77 in 10.0 mi SSW 6.9 mph - N/A   Mostly Cloudy
10:55 AM 73.0 °F - 55.2 °F 53% 29.76 in 10.0 mi South 6.9 mph - N/A   Scattered Clouds
11:15 AM 74.5 °F - 56.8 °F 54% 29.75 in 10.0 mi SSW 13.8 mph 19.6 mph N/A   Scattered Clouds
11:35 AM 75.6 °F - 57.0 °F 52% 29.74 in 10.0 mi SSW 15.0 mph - N/A   Mostly Cloudy
11:55 AM 77.5 °F - 57.4 °F 50% 29.72 in 10.0 mi South 17.3 mph 23.0 mph N/A   Scattered Clouds
12:15 PM 77.2 °F - 57.7 °F 51% 29.70 in 10.0 mi South 12.7 mph 21.9 mph N/A   Clear
12:35 PM 78.4 °F - 57.9 °F 49% 29.69 in 10.0 mi SSW 15.0 mph 25.3 mph N/A   Scattered Clouds
12:55 PM 78.1 °F - 57.4 °F 49% 29.68 in 10.0 mi SSW 13.8 mph 24.2 mph N/A   Scattered Clouds
1:15 PM 78.4 °F - 57.0 °F 48% 29.67 in 10.0 mi SW 13.8 mph 26.5 mph N/A   Scattered Clouds
1:35 PM 80.2 °F 80.4 °F 56.7 °F 44% 29.66 in 10.0 mi SW 13.8 mph 20.7 mph N/A   Clear
1:55 PM 81.7 °F 81.4 °F 56.5 °F 42% 29.66 in 10.0 mi SW 17.3 mph 26.5 mph N/A   Clear
2:15 PM 80.8 °F 80.9 °F 56.8 °F 44% 29.65 in 10.0 mi SW 10.4 mph 18.4 mph N/A   Clear
2:35 PM 82.6 °F 81.8 °F 55.4 °F 39% 29.64 in 10.0 mi SW 13.8 mph 23.0 mph N/A   Clear
2:55 PM 83.1 °F 82.3 °F 55.9 °F 39% 29.63 in 10.0 mi SW 9.2 mph 12.7 mph N/A   Clear
3:15 PM 83.8 °F 82.8 °F 55.9 °F 38% 29.62 in 10.0 mi SSW 15.0 mph 24.2 mph N/A   Clear
3:35 PM 84.9 °F 83.7 °F 55.8 °F 37% 29.61 in 10.0 mi South 15.0 mph 24.2 mph N/A   Clear
3:55 PM 85.1 °F 83.8 °F 55.0 °F 36% 29.59 in 10.0 mi SW 18.4 mph 24.2 mph N/A   Clear
4:15 PM 83.5 °F 82.5 °F 55.2 °F 38% 29.58 in 10.0 mi South 10.4 mph - N/A   Clear
4:35 PM 85.3 °F 83.8 °F 54.7 °F 35% 29.58 in 10.0 mi South 12.7 mph 23.0 mph N/A   Clear
4:55 PM 84.4 °F 83.2 °F 55.4 °F 37% 29.57 in 10.0 mi SW 12.7 mph 21.9 mph N/A   Clear
5:15 PM 84.6 °F 83.2 °F 55.2 °F 36% 29.57 in 10.0 mi SSW 16.1 mph 24.2 mph N/A   Clear
5:35 PM 83.5 °F 82.5 °F 55.4 °F 38% 29.57 in 10.0 mi South 12.7 mph - N/A   Clear
5:55 PM 83.8 °F 83.0 °F 56.3 °F 39% 29.57 in 10.0 mi South 17.3 mph - N/A   Clear
6:15 PM 82.6 °F 82.0 °F 56.3 °F 40% 29.56 in 10.0 mi South 12.7 mph - N/A   Clear
6:35 PM 81.1 °F 81.1 °F 56.7 °F 43% 29.56 in 10.0 mi South 13.8 mph - N/A   Clear
6:55 PM 80.6 °F 80.7 °F 56.7 °F 44% 29.56 in 10.0 mi South 9.2 mph - N/A   Clear
7:15 PM 79.2 °F - 57.2 °F 47% 29.56 in 10.0 mi South 10.4 mph - N/A   Clear
7:35 PM 78.3 °F - 56.8 °F 48% 29.56 in 10.0 mi South 13.8 mph 19.6 mph N/A   Clear
7:55 PM 77.4 °F - 56.7 °F 49% 29.55 in 10.0 mi South 10.4 mph - N/A   Clear
8:15 PM 76.3 °F - 56.7 °F 51% 29.54 in 10.0 mi South 9.2 mph - N/A   Clear
8:35 PM 75.6 °F - 57.0 °F 52% 29.53 in 10.0 mi South 10.4 mph - N/A   Clear
8:55 PM 75.9 °F - 57.6 °F 53% 29.54 in 10.0 mi South 13.8 mph 20.7 mph N/A   Clear
9:15 PM 75.7 °F - 57.6 °F 53% 29.55 in 10.0 mi South 11.5 mph 18.4 mph N/A   Clear
9:35 PM 75.4 °F - 57.6 °F 54% 29.54 in 10.0 mi South 12.7 mph - N/A   Clear
9:55 PM 74.5 °F - 57.6 °F 55% 29.52 in 10.0 mi South 15.0 mph 19.6 mph N/A   Clear
10:15 PM 74.3 °F - 57.6 °F 56% 29.51 in 10.0 mi South 13.8 mph - N/A   Clear
10:35 PM 74.3 °F - 57.6 °F 56% 29.52 in 10.0 mi South 11.5 mph - N/A   Clear
10:55 PM 73.9 °F - 57.7 °F 57% 29.54 in 10.0 mi SSW 6.9 mph - N/A   Scattered Clouds
11:15 PM 73.2 °F - 56.7 °F 56% 29.56 in 10.0 mi NNW 9.2 mph - N/A   Mostly Cloudy
11:35 PM 59.9 °F - 55.0 °F 84% 29.67 in 5.0 mi West 21.9 mph 48.3 mph 0.02 in Rain Heavy Rain
11:55 PM 59.4 °F - 57.2 °F 93% 29.67 in 7.0 mi WNW 10.4 mph 13.8 mph 0.02 in Rain Rain